Time;durP1;ratioP1;P1;durP2;ratioP2;P2;SDS_P1;SDS_P2;PMS_P1;PMS_P2;Temp;Humidity;BMP_temperature;BMP_pressure;BME280_temperature;BME280_humidity;BME280_pressure;Samples;Min_cycle;Max_cycle;Signal;HPM_P1;HPM_P2
2021/08/12 00:00:51;;;;;;;10.13;3.28;;;;;;;;;;5007253;28;20029;-40
2021/08/12 00:03:18;;;;;;;12.68;3.60;;;;;;;;;;5006778;28;20038;-39
2021/08/12 00:05:45;;;;;;;12.07;3.38;;;;;;;;;;5004343;28;20069;-47
2021/08/12 00:08:13;;;;;;;19.90;4.05;;;;;;;;;;5009594;28;20051;-41
2021/08/12 00:10:42;;;;;;;21.38;4.07;;;;;;;;;;4992777;28;20779;-37
2021/08/12 00:13:09;;;;;;;19.20;4.18;;;;;;;;;;5003823;28;20033;-42
2021/08/12 00:15:36;;;;;;;15.57;3.97;;;;;;;;;;4994730;28;20089;-40
2021/08/12 00:18:03;;;;;;;19.55;4.30;;;;;;;;;;5009640;28;20033;-46
2021/08/12 00:20:33;;;;;;;14.38;3.58;;;;;;;;;;5010358;28;20492;-50
2021/08/12 00:23:03;;;;;;;21.67;3.92;;;;;;;;;;5007657;28;20030;-45
2021/08/12 00:25:33;;;;;;;15.70;3.78;;;;;;;;;;5003449;28;20031;-41
2021/08/12 00:28:03;;;;;;;17.35;4.20;;;;;;;;;;5009512;28;20021;-49
2021/08/12 00:30:30;;;;;;;24.20;4.40;;;;;;;;;;5009760;28;20069;-45
2021/08/12 00:32:57;;;;;;;17.92;5.22;;;;;;;;;;5010413;28;20030;-45
2021/08/12 00:35:24;;;;;;;16.88;3.85;;;;;;;;;;5006538;28;20500;-41
2021/08/12 00:37:51;;;;;;;24.60;5.72;;;;;;;;;;4988162;28;20548;-40
2021/08/12 00:40:20;;;;;;;24.08;5.13;;;;;;;;;;5008112;28;20482;-41
2021/08/12 00:42:47;;;;;;;18.90;5.15;;;;;;;;;;5007580;28;20030;-45
2021/08/12 00:45:14;;;;;;;19.15;4.32;;;;;;;;;;5004330;28;20033;-38
2021/08/12 00:47:41;;;;;;;19.35;5.93;;;;;;;;;;5005753;28;20351;-40
2021/08/12 00:50:09;;;;;;;26.95;5.18;;;;;;;;;;5008943;28;20231;-44
2021/08/12 00:52:36;;;;;;;34.35;5.80;;;;;;;;;;5008810;28;20038;-38
2021/08/12 00:55:04;;;;;;;23.63;6.15;;;;;;;;;;4991391;28;20116;-48
2021/08/12 00:57:32;;;;;;;26.25;5.45;;;;;;;;;;5008332;28;20592;-44
2021/08/12 00:59:59;;;;;;;25.75;5.70;;;;;;;;;;5007121;28;20579;-40
2021/08/12 01:02:26;;;;;;;26.77;6.35;;;;;;;;;;5009351;28;20025;-38
2021/08/12 01:04:53;;;;;;;27.63;6.10;;;;;;;;;;5006353;28;20589;-40
2021/08/12 01:07:26;;;;;;;26.10;6.20;;;;;;;;;;5003112;28;20109;-41
2021/08/12 01:09:56;;;;;;;32.22;5.72;;;;;;;;;;5000714;28;20298;-38
2021/08/12 01:12:39;;;;;;;29.50;5.95;;;;;;;;;;5005578;28;20105;-37
2021/08/12 01:15:11;;;;;;;26.48;6.40;;;;;;;;;;5007627;28;20037;-41
2021/08/12 01:17:45;;;;;;;30.75;6.50;;;;;;;;;;5006019;28;20049;-46
2021/08/12 01:20:18;;;;;;;30.83;6.07;;;;;;;;;;4989961;28;20030;-41
2021/08/12 01:22:50;;;;;;;30.73;6.63;;;;;;;;;;5007026;28;20045;-39
2021/08/12 01:25:28;;;;;;;27.17;6.32;;;;;;;;;;5005533;28;20166;-42
2021/08/12 01:27:59;;;;;;;28.35;6.47;;;;;;;;;;4995015;28;20052;-44
2021/08/12 01:30:30;;;;;;;27.63;6.45;;;;;;;;;;5006455;28;20033;-46
2021/08/12 01:33:05;;;;;;;24.27;6.03;;;;;;;;;;5007189;28;20045;-45
2021/08/12 01:35:37;;;;;;;40.15;7.75;;;;;;;;;;5001192;28;20120;-42
2021/08/12 01:38:08;;;;;;;33.35;7.25;;;;;;;;;;5006198;28;20030;-41
2021/08/12 01:40:36;;;;;;;26.17;6.10;;;;;;;;;;5008204;28;20061;-46
2021/08/12 01:43:09;;;;;;;30.23;6.80;;;;;;;;;;5008962;28;20787;-40
2021/08/12 01:45:36;;;;;;;23.77;6.72;;;;;;;;;;5003631;28;20034;-44
2021/08/12 01:48:03;;;;;;;27.40;5.70;;;;;;;;;;5006686;28;20134;-38
2021/08/12 01:50:31;;;;;;;23.52;6.65;;;;;;;;;;5009170;28;20452;-40
2021/08/12 01:52:59;;;;;;;28.95;5.97;;;;;;;;;;5006330;28;20105;-41
2021/08/12 01:55:29;;;;;;;29.35;6.47;;;;;;;;;;5008162;28;20032;-49
2021/08/12 01:58:00;;;;;;;29.42;6.82;;;;;;;;;;5008496;28;20054;-41
2021/08/12 02:00:30;;;;;;;34.50;6.78;;;;;;;;;;5011128;28;20086;-41
2021/08/12 02:02:57;;;;;;;23.10;6.00;;;;;;;;;;5011765;28;20096;-41
2021/08/12 02:05:25;;;;;;;27.30;6.72;;;;;;;;;;5010493;28;20026;-41
2021/08/12 02:07:52;;;;;;;32.70;6.53;;;;;;;;;;5011443;28;20105;-52
2021/08/12 02:10:19;;;;;;;32.53;6.13;;;;;;;;;;4991850;28;20462;-51
2021/08/12 02:12:47;;;;;;;20.63;5.80;;;;;;;;;;5010505;28;20041;-46
2021/08/12 02:15:14;;;;;;;28.05;6.32;;;;;;;;;;5012216;28;20076;-46
2021/08/12 02:17:42;;;;;;;30.80;6.97;;;;;;;;;;5010622;28;20129;-49
2021/08/12 02:20:10;;;;;;;26.35;6.10;;;;;;;;;;5008241;28;20537;-42
2021/08/12 02:22:46;;;;;;;25.27;6.20;;;;;;;;;;5009558;28;20492;-43
2021/08/12 02:25:14;;;;;;;23.95;6.50;;;;;;;;;;5011093;28;20030;-37
2021/08/12 02:27:46;;;;;;;23.92;6.38;;;;;;;;;;5003301;28;20474;-43
2021/08/12 02:30:14;;;;;;;29.85;5.85;;;;;;;;;;5012046;28;20022;-44
2021/08/12 02:32:42;;;;;;;31.35;6.50;;;;;;;;;;4999696;28;20044;-48
2021/08/12 02:35:11;;;;;;;23.02;5.40;;;;;;;;;;5008373;28;20030;-43
2021/08/12 02:37:38;;;;;;;27.90;6.15;;;;;;;;;;5011120;28;20079;-42
2021/08/12 02:40:06;;;;;;;23.60;5.82;;;;;;;;;;5010285;28;20037;-49
2021/08/12 02:42:33;;;;;;;25.88;6.32;;;;;;;;;;5012624;28;20026;-47
2021/08/12 02:45:01;;;;;;;24.38;6.63;;;;;;;;;;5013377;28;20389;-38
2021/08/12 02:47:30;;;;;;;32.03;6.60;;;;;;;;;;5013126;28;20076;-46
2021/08/12 02:49:57;;;;;;;22.92;5.82;;;;;;;;;;5011177;28;20037;-44
2021/08/12 02:52:25;;;;;;;25.27;6.22;;;;;;;;;;5013156;28;20409;-47
2021/08/12 02:54:53;;;;;;;25.38;5.85;;;;;;;;;;5006508;28;20346;-43
2021/08/12 02:57:20;;;;;;;23.75;5.50;;;;;;;;;;5012862;28;20045;-44
2021/08/12 02:59:48;;;;;;;20.58;5.95;;;;;;;;;;5012834;28;20354;-43
2021/08/12 03:02:20;;;;;;;21.63;5.90;;;;;;;;;;5003837;28;20025;-37
2021/08/12 03:04:47;;;;;;;24.60;4.72;;;;;;;;;;5005487;28;20061;-42
2021/08/12 03:07:14;;;;;;;31.38;6.45;;;;;;;;;;5009843;28;20026;-45
2021/08/12 03:09:43;;;;;;;22.58;5.75;;;;;;;;;;5012100;28;20030;-42
2021/08/12 03:12:10;;;;;;;28.50;5.68;;;;;;;;;;5024275;28;20171;-40
2021/08/12 03:14:38;;;;;;;27.20;5.22;;;;;;;;;;5025553;28;20018;-36
2021/08/12 03:17:05;;;;;;;19.30;5.32;;;;;;;;;;5012340;28;20052;-39
2021/08/12 03:19:32;;;;;;;24.23;5.45;;;;;;;;;;5018210;28;20022;-38
2021/08/12 03:22:09;;;;;;;19.45;5.53;;;;;;;;;;5030919;28;20017;-35
2021/08/12 03:24:37;;;;;;;18.48;5.40;;;;;;;;;;5019239;28;20108;-35
2021/08/12 03:27:05;;;;;;;17.45;5.28;;;;;;;;;;5013356;28;20029;-36
2021/08/12 03:29:32;;;;;;;24.35;5.57;;;;;;;;;;5012925;28;21830;-34
2021/08/12 03:31:59;;;;;;;21.98;5.28;;;;;;;;;;5013184;28;20030;-35
2021/08/12 03:34:26;;;;;;;17.17;5.40;;;;;;;;;;5012744;28;20045;-35
2021/08/12 03:36:53;;;;;;;18.10;4.90;;;;;;;;;;5012502;28;20028;-36
2021/08/12 03:39:21;;;;;;;19.92;5.18;;;;;;;;;;5013152;28;20014;-34
2021/08/12 03:41:50;;;;;;;18.52;5.95;;;;;;;;;;5012253;28;20109;-35
2021/08/12 03:44:17;;;;;;;14.50;4.82;;;;;;;;;;5012897;28;20402;-36
2021/08/12 03:46:44;;;;;;;15.20;4.75;;;;;;;;;;4994867;28;20077;-35
2021/08/12 03:49:11;;;;;;;18.38;5.45;;;;;;;;;;5012808;28;20029;-36
2021/08/12 03:51:38;;;;;;;16.85;5.05;;;;;;;;;;5012750;28;20045;-34
2021/08/12 03:54:06;;;;;;;18.48;5.60;;;;;;;;;;5012425;28;20026;-37
2021/08/12 03:56:33;;;;;;;16.83;4.80;;;;;;;;;;5013177;28;20057;-36
2021/08/12 03:59:00;;;;;;;17.58;5.50;;;;;;;;;;5012335;28;20017;-36
2021/08/12 04:01:27;;;;;;;21.58;5.05;;;;;;;;;;5012609;28;20033;-34
2021/08/12 04:03:54;;;;;;;21.40;5.45;;;;;;;;;;4994385;28;20062;-42
2021/08/12 04:06:21;;;;;;;16.90;4.93;;;;;;;;;;5006739;28;20022;-35
2021/08/12 04:08:48;;;;;;;15.70;4.82;;;;;;;;;;5011882;28;20018;-39
2021/08/12 04:11:15;;;;;;;14.93;4.95;;;;;;;;;;5012706;28;20045;-36
2021/08/12 04:13:42;;;;;;;17.33;5.43;;;;;;;;;;5012148;28;20022;-35
2021/08/12 04:16:09;;;;;;;16.58;5.10;;;;;;;;;;5012222;28;20038;-35
2021/08/12 04:18:36;;;;;;;19.60;5.03;;;;;;;;;;5011734;28;20756;-35
2021/08/12 04:21:03;;;;;;;14.02;4.90;;;;;;;;;;5012494;28;20021;-36
2021/08/12 04:23:30;;;;;;;15.07;5.55;;;;;;;;;;5012248;28;20548;-35
2021/08/12 04:25:57;;;;;;;18.27;5.43;;;;;;;;;;5011810;28;20036;-36
2021/08/12 04:28:24;;;;;;;18.10;4.95;;;;;;;;;;5012347;28;20438;-34
2021/08/12 04:30:51;;;;;;;16.95;5.57;;;;;;;;;;5011568;28;20026;-37
2021/08/12 04:33:18;;;;;;;19.23;4.90;;;;;;;;;;5012124;28;20022;-35
2021/08/12 04:35:45;;;;;;;17.35;4.93;;;;;;;;;;5011771;28;20030;-35
2021/08/12 04:38:12;;;;;;;12.70;4.63;;;;;;;;;;5011792;28;20018;-47
2021/08/12 04:40:39;;;;;;;25.02;6.00;;;;;;;;;;5011835;28;20032;-47
2021/08/12 04:43:06;;;;;;;18.58;4.85;;;;;;;;;;5003858;28;20105;-45
2021/08/12 04:45:34;;;;;;;18.13;5.25;;;;;;;;;;5011622;28;20030;-40
2021/08/12 04:48:03;;;;;;;19.13;5.40;;;;;;;;;;5011576;28;20030;-47
2021/08/12 04:50:30;;;;;;;18.38;5.28;;;;;;;;;;5011632;28;20559;-41
2021/08/12 04:52:57;;;;;;;14.68;4.80;;;;;;;;;;5011879;28;20029;-41
2021/08/12 04:55:24;;;;;;;16.85;5.03;;;;;;;;;;5011347;28;20473;-47
2021/08/12 04:57:51;;;;;;;14.48;4.72;;;;;;;;;;5012000;28;20049;-44
2021/08/12 05:00:19;;;;;;;17.08;4.60;;;;;;;;;;5011437;28;20040;-45
2021/08/12 05:02:46;;;;;;;21.75;5.38;;;;;;;;;;4992554;28;20068;-42
2021/08/12 05:05:13;;;;;;;15.20;4.60;;;;;;;;;;5031769;28;20596;-43
2021/08/12 05:07:40;;;;;;;15.80;4.50;;;;;;;;;;5011363;28;20106;-45
2021/08/12 05:10:08;;;;;;;15.13;5.22;;;;;;;;;;5011655;28;20115;-43
2021/08/12 05:12:35;;;;;;;14.65;4.72;;;;;;;;;;5018454;28;20093;-38
2021/08/12 05:15:02;;;;;;;17.67;4.63;;;;;;;;;;5025289;28;20030;-44
2021/08/12 05:17:29;;;;;;;14.77;4.75;;;;;;;;;;5011169;28;20042;-43
2021/08/12 05:19:56;;;;;;;18.58;4.80;;;;;;;;;;5011448;28;20501;-44
2021/08/12 05:22:23;;;;;;;18.63;4.88;;;;;;;;;;5011138;28;20458;-41
2021/08/12 05:24:51;;;;;;;17.25;4.70;;;;;;;;;;5011377;28;20029;-42
2021/08/12 05:27:18;;;;;;;16.45;5.00;;;;;;;;;;5011895;28;20516;-41
2021/08/12 05:29:45;;;;;;;13.48;4.78;;;;;;;;;;5010892;28;20025;-42
2021/08/12 05:32:12;;;;;;;14.00;4.50;;;;;;;;;;5015534;28;20498;-39
2021/08/12 05:34:39;;;;;;;18.65;4.88;;;;;;;;;;5031259;28;20025;-36
2021/08/12 05:37:06;;;;;;;15.98;4.45;;;;;;;;;;5015653;28;20394;-36
2021/08/12 05:39:33;;;;;;;14.95;4.65;;;;;;;;;;5014664;28;20025;-44
2021/08/12 05:42:00;;;;;;;12.60;4.28;;;;;;;;;;5014063;28;20045;-43
2021/08/12 05:44:27;;;;;;;13.35;4.30;;;;;;;;;;5011222;28;20030;-40
2021/08/12 05:46:54;;;;;;;14.63;4.60;;;;;;;;;;5011621;28;20018;-40
2021/08/12 05:49:22;;;;;;;14.07;4.50;;;;;;;;;;5012288;28;20430;-48
2021/08/12 05:51:49;;;;;;;16.15;4.80;;;;;;;;;;5015093;28;20017;-45
2021/08/12 05:54:16;;;;;;;14.07;4.57;;;;;;;;;;5014765;28;20055;-45
2021/08/12 05:56:43;;;;;;;14.95;4.60;;;;;;;;;;5014694;28;20030;-42
2021/08/12 05:59:10;;;;;;;10.02;3.92;;;;;;;;;;5014953;28;20492;-45
2021/08/12 06:01:37;;;;;;;12.55;4.38;;;;;;;;;;5014451;28;20030;-48
2021/08/12 06:04:04;;;;;;;13.95;4.07;;;;;;;;;;5014801;28;20065;-44
2021/08/12 06:06:31;;;;;;;14.43;5.20;;;;;;;;;;5014767;28;20025;-38
2021/08/12 06:08:58;;;;;;;11.75;3.90;;;;;;;;;;5014661;28;20025;-37
2021/08/12 06:11:25;;;;;;;15.48;4.38;;;;;;;;;;5014315;28;20552;-38
2021/08/12 06:13:52;;;;;;;15.10;4.60;;;;;;;;;;5014377;28;20029;-40
2021/08/12 06:16:20;;;;;;;11.48;3.97;;;;;;;;;;5014061;28;20518;-41
2021/08/12 06:18:47;;;;;;;15.20;3.63;;;;;;;;;;4995568;28;20042;-38
2021/08/12 06:21:14;;;;;;;13.00;4.20;;;;;;;;;;5014037;28;20029;-40
2021/08/12 06:23:42;;;;;;;11.45;4.07;;;;;;;;;;5014308;28;20036;-43
2021/08/12 06:26:10;;;;;;;12.30;4.13;;;;;;;;;;4996212;28;20473;-40
2021/08/12 06:28:37;;;;;;;14.18;3.78;;;;;;;;;;5014517;28;20032;-40
2021/08/12 06:31:04;;;;;;;11.00;3.72;;;;;;;;;;5014006;28;20381;-44
2021/08/12 06:33:31;;;;;;;11.48;3.78;;;;;;;;;;5013967;28;20029;-41
2021/08/12 06:35:58;;;;;;;11.68;4.35;;;;;;;;;;5014283;28;20061;-46
2021/08/12 06:38:25;;;;;;;12.77;4.35;;;;;;;;;;5013544;28;20018;-43
2021/08/12 06:40:55;;;;;;;13.18;3.75;;;;;;;;;;5013923;28;20096;-44
2021/08/12 06:43:22;;;;;;;11.82;4.25;;;;;;;;;;4979671;28;20104;-42
2021/08/12 06:45:49;;;;;;;11.73;4.25;;;;;;;;;;5013219;28;20493;-41
2021/08/12 06:48:16;;;;;;;10.82;4.53;;;;;;;;;;5033146;28;20481;-41
2021/08/12 06:50:43;;;;;;;9.73;4.10;;;;;;;;;;5033528;28;20100;-43
2021/08/12 06:53:10;;;;;;;13.98;4.03;;;;;;;;;;5033392;28;20079;-41
2021/08/12 06:55:37;;;;;;;11.98;4.20;;;;;;;;;;5033718;28;20021;-37
2021/08/12 06:58:04;;;;;;;10.23;3.97;;;;;;;;;;5033400;28;20029;-40
2021/08/12 07:00:31;;;;;;;10.60;3.75;;;;;;;;;;5018432;28;20414;-42
2021/08/12 07:02:58;;;;;;;12.43;4.55;;;;;;;;;;5016072;28;20026;-44
2021/08/12 07:05:26;;;;;;;11.20;4.38;;;;;;;;;;5032933;28;20026;-44
2021/08/12 07:07:53;;;;;;;10.07;3.58;;;;;;;;;;5033914;28;20018;-38
2021/08/12 07:10:20;;;;;;;10.57;3.70;;;;;;;;;;5032975;28;20061;-41
2021/08/12 07:12:47;;;;;;;10.73;3.80;;;;;;;;;;5032967;28;20033;-45
2021/08/12 07:15:14;;;;;;;8.77;3.30;;;;;;;;;;5033093;28;20021;-48
2021/08/12 07:17:41;;;;;;;10.30;4.35;;;;;;;;;;5033024;28;20145;-44
2021/08/12 07:20:08;;;;;;;8.57;3.10;;;;;;;;;;5032820;28;20025;-44
2021/08/12 07:22:35;;;;;;;12.95;3.78;;;;;;;;;;5032909;28;20025;-44
2021/08/12 07:25:02;;;;;;;9.25;3.50;;;;;;;;;;5032604;28;20485;-44
2021/08/12 07:27:29;;;;;;;9.35;3.10;;;;;;;;;;5033016;28;20026;-45
2021/08/12 07:29:56;;;;;;;9.82;3.22;;;;;;;;;;5032896;28;20022;-46
2021/08/12 07:32:23;;;;;;;7.25;2.85;;;;;;;;;;5032427;28;20029;-44
2021/08/12 07:34:50;;;;;;;11.43;3.80;;;;;;;;;;5032818;28;20014;-44
2021/08/12 07:37:17;;;;;;;8.60;2.95;;;;;;;;;;5032769;28;20367;-44
2021/08/12 07:39:44;;;;;;;9.18;2.67;;;;;;;;;;5033356;28;20449;-43
2021/08/12 07:42:13;;;;;;;9.93;3.63;;;;;;;;;;5032227;28;20029;-44
2021/08/12 07:44:40;;;;;;;9.23;3.28;;;;;;;;;;5032745;28;20131;-43
2021/08/12 07:47:07;;;;;;;5.75;2.60;;;;;;;;;;5032367;28;20562;-46
2021/08/12 07:49:34;;;;;;;6.10;2.55;;;;;;;;;;5032832;28;20477;-45
2021/08/12 07:52:01;;;;;;;8.85;3.03;;;;;;;;;;5032657;28;20029;-46
2021/08/12 07:54:28;;;;;;;11.95;3.67;;;;;;;;;;5031993;28;20123;-44
2021/08/12 07:56:56;;;;;;;8.48;2.67;;;;;;;;;;5031474;28;20032;-42
2021/08/12 07:59:22;;;;;;;7.85;2.60;;;;;;;;;;5032326;28;20018;-41
2021/08/12 08:01:53;;;;;;;5.78;2.78;;;;;;;;;;5031530;28;20033;-45
2021/08/12 08:04:20;;;;;;;6.20;2.25;;;;;;;;;;5030976;28;20113;-39
2021/08/12 08:06:47;;;;;;;6.43;2.60;;;;;;;;;;5031694;28;20025;-47
2021/08/12 08:09:14;;;;;;;9.73;2.67;;;;;;;;;;5032214;28;20482;-36
2021/08/12 08:11:41;;;;;;;6.95;2.72;;;;;;;;;;5032177;28;20056;-40
2021/08/12 08:14:08;;;;;;;7.68;2.63;;;;;;;;;;5029548;28;20026;-39
2021/08/12 08:16:35;;;;;;;7.88;2.30;;;;;;;;;;5031870;28;20072;-35
2021/08/12 08:19:02;;;;;;;4.75;1.98;;;;;;;;;;5032155;28;20029;-35
2021/08/12 08:21:29;;;;;;;7.82;2.55;;;;;;;;;;5032008;28;20018;-35
2021/08/12 08:23:56;;;;;;;6.18;2.47;;;;;;;;;;5031845;28;20033;-35
2021/08/12 08:26:23;;;;;;;5.50;1.95;;;;;;;;;;5031318;28;20389;-35
2021/08/12 08:28:50;;;;;;;5.25;2.17;;;;;;;;;;5032313;28;20033;-35
2021/08/12 08:31:17;;;;;;;5.45;2.10;;;;;;;;;;5031575;28;20026;-36
2021/08/12 08:33:44;;;;;;;8.10;2.15;;;;;;;;;;5031875;28;20085;-37
2021/08/12 08:36:11;;;;;;;4.47;1.92;;;;;;;;;;5031451;28;20052;-38
2021/08/12 08:38:38;;;;;;;4.50;2.03;;;;;;;;;;5031930;28;20018;-40
2021/08/12 08:41:10;;;;;;;6.15;2.22;;;;;;;;;;5031784;28;20220;-39
2021/08/12 08:43:41;;;;;;;5.00;2.10;;;;;;;;;;5031851;28;20508;-36
2021/08/12 08:46:08;;;;;;;7.68;2.15;;;;;;;;;;5014059;28;20052;-37
2021/08/12 08:48:45;;;;;;;8.45;2.40;;;;;;;;;;5032351;28;20035;-42
2021/08/12 08:51:12;;;;;;;4.03;2.03;;;;;;;;;;5031731;28;20030;-38
2021/08/12 08:53:40;;;;;;;3.97;2.15;;;;;;;;;;5030742;28;20362;-35
2021/08/12 08:56:07;;;;;;;6.78;2.17;;;;;;;;;;5031586;28;20440;-36
2021/08/12 08:58:34;;;;;;;4.72;2.10;;;;;;;;;;5031021;28;20053;-36
2021/08/12 09:01:01;;;;;;;9.02;2.08;;;;;;;;;;5031641;28;20418;-37
2021/08/12 09:03:28;;;;;;;7.07;2.17;;;;;;;;;;5029767;28;20477;-37
2021/08/12 09:05:55;;;;;;;4.78;2.10;;;;;;;;;;5000856;28;20037;-37
2021/08/12 09:08:22;;;;;;;5.85;1.90;;;;;;;;;;5030890;28;20504;-36
2021/08/12 09:10:50;;;;;;;5.43;2.15;;;;;;;;;;5031326;28;20021;-35
2021/08/12 09:13:17;;;;;;;4.68;2.03;;;;;;;;;;5030718;28;20033;-37
2021/08/12 09:15:45;;;;;;;5.22;1.90;;;;;;;;;;5030839;28;20032;-35
2021/08/12 09:18:25;;;;;;;5.22;1.88;;;;;;;;;;5031058;28;20540;-36
2021/08/12 09:20:53;;;;;;;7.07;1.73;;;;;;;;;;5031217;28;20108;-35
2021/08/12 09:23:24;;;;;;;4.35;1.70;;;;;;;;;;5030606;28;20036;-35
2021/08/12 09:25:51;;;;;;;4.32;1.70;;;;;;;;;;5031240;28;20543;-40
2021/08/12 09:28:29;;;;;;;3.88;1.55;;;;;;;;;;5031433;28;20469;-35
2021/08/12 09:30:59;;;;;;;6.15;1.77;;;;;;;;;;5013449;28;20124;-36
2021/08/12 09:33:27;;;;;;;4.93;1.52;;;;;;;;;;5030846;28;20473;-35
2021/08/12 09:35:54;;;;;;;3.53;1.50;;;;;;;;;;5030227;28;20045;-37
2021/08/12 09:38:23;;;;;;;4.65;1.77;;;;;;;;;;5031365;28;20028;-37
2021/08/12 09:40:57;;;;;;;6.07;1.60;;;;;;;;;;5030488;28;20022;-38
2021/08/12 09:43:30;;;;;;;4.65;1.30;;;;;;;;;;5013274;28;20021;-36
2021/08/12 09:45:58;;;;;;;4.45;1.60;;;;;;;;;;5030083;28;20485;-38
2021/08/12 09:48:25;;;;;;;4.45;1.80;;;;;;;;;;5031075;28;20029;-47
2021/08/12 09:51:06;;;;;;;4.05;1.88;;;;;;;;;;5030643;28;20440;-42
2021/08/12 09:53:33;;;;;;;6.50;1.88;;;;;;;;;;5030765;28;20466;-44
2021/08/12 09:56:10;;;;;;;5.20;1.45;;;;;;;;;;5030499;28;20032;-45
2021/08/12 09:58:38;;;;;;;3.85;1.50;;;;;;;;;;5030557;28;20053;-42
2021/08/12 10:01:18;;;;;;;6.30;1.70;;;;;;;;;;5030240;28;20037;-38
2021/08/12 10:03:46;;;;;;;4.32;1.45;;;;;;;;;;5030650;28;20057;-38
2021/08/12 10:06:24;;;;;;;4.63;1.65;;;;;;;;;;5012578;28;20108;-39
2021/08/12 10:08:51;;;;;;;3.83;1.58;;;;;;;;;;5030891;28;20108;-41
2021/08/12 10:11:27;;;;;;;3.67;1.58;;;;;;;;;;5030315;28;20026;-38
2021/08/12 10:14:02;;;;;;;5.05;1.40;;;;;;;;;;5030605;28;20053;-41
2021/08/12 10:16:30;;;;;;;3.25;1.33;;;;;;;;;;5030145;28;20030;-37
2021/08/12 10:18:58;;;;;;;3.47;1.13;;;;;;;;;;5031184;28;20029;-36
2021/08/12 10:21:25;;;;;;;4.72;1.50;;;;;;;;;;5034135;28;20021;-38
2021/08/12 10:23:55;;;;;;;5.22;1.52;;;;;;;;;;5033891;28;20030;-38
2021/08/12 10:26:25;;;;;;;3.90;1.45;;;;;;;;;;5034082;28;20044;-38
2021/08/12 10:28:54;;;;;;;5.18;1.50;;;;;;;;;;5034617;28;20056;-38
2021/08/12 10:31:24;;;;;;;4.88;1.45;;;;;;;;;;5034429;28;20025;-39
2021/08/12 10:33:51;;;;;;;3.72;1.48;;;;;;;;;;5033644;28;20039;-37
2021/08/12 10:36:19;;;;;;;5.60;1.30;;;;;;;;;;5033850;28;20067;-39
2021/08/12 10:38:46;;;;;;;4.45;1.70;;;;;;;;;;5016117;28;20056;-39
2021/08/12 10:41:15;;;;;;;3.05;1.30;;;;;;;;;;5034065;28;20064;-40
2021/08/12 10:43:42;;;;;;;4.40;1.40;;;;;;;;;;5033212;28;20631;-41
2021/08/12 10:46:09;;;;;;;2.95;1.23;;;;;;;;;;5033715;28;20091;-36
2021/08/12 10:48:36;;;;;;;3.08;1.27;;;;;;;;;;5033512;28;20025;-36
2021/08/12 10:51:13;;;;;;;3.50;1.30;;;;;;;;;;5019441;28;20156;-37
2021/08/12 10:53:44;;;;;;;3.20;1.30;;;;;;;;;;5030007;28;20049;-38
2021/08/12 10:56:14;;;;;;;4.10;1.35;;;;;;;;;;5033884;28;20100;-38
2021/08/12 10:58:43;;;;;;;4.95;1.80;;;;;;;;;;5033339;28;20113;-41
2021/08/12 11:01:11;;;;;;;3.38;1.45;;;;;;;;;;5033831;28;20066;-37
2021/08/12 11:03:43;;;;;;;5.72;1.75;;;;;;;;;;5033006;28;20033;-38
2021/08/12 11:06:13;;;;;;;3.92;1.30;;;;;;;;;;5033606;28;20036;-37
2021/08/12 11:08:49;;;;;;;6.07;1.55;;;;;;;;;;5033020;28;20021;-36
2021/08/12 11:11:22;;;;;;;3.60;1.23;;;;;;;;;;5033685;28;20057;-37
2021/08/12 11:13:50;;;;;;;3.30;1.30;;;;;;;;;;5033128;28;20109;-37
2021/08/12 11:16:18;;;;;;;4.25;1.60;;;;;;;;;;5032929;28;20073;-36
2021/08/12 11:18:55;;;;;;;3.75;1.58;;;;;;;;;;5032934;28;20040;-39
2021/08/12 11:21:31;;;;;;;6.25;1.50;;;;;;;;;;5033559;28;20021;-36
2021/08/12 11:24:02;;;;;;;6.38;1.33;;;;;;;;;;5015226;28;20021;-36
2021/08/12 11:26:55;;;;;;;3.22;1.30;;;;;;;;;;5033076;28;20022;-36
2021/08/12 11:29:38;;;;;;;2.38;1.15;;;;;;;;;;5002885;28;20056;-36
2021/08/12 11:32:10;;;;;;;8.05;1.92;;;;;;;;;;5031993;28;20038;-36
2021/08/12 11:34:53;;;;;;;4.43;1.60;;;;;;;;;;5027782;28;20022;-39
2021/08/12 11:37:20;;;;;;;6.28;1.48;;;;;;;;;;5018470;28;20029;-37
2021/08/12 11:39:54;;;;;;;3.10;1.20;;;;;;;;;;5032758;28;20039;-37
2021/08/12 11:42:22;;;;;;;5.30;1.67;;;;;;;;;;5033091;28;20021;-36
2021/08/12 11:44:49;;;;;;;3.28;1.50;;;;;;;;;;5032773;28;20025;-37
2021/08/12 11:47:16;;;;;;;3.22;1.33;;;;;;;;;;5032048;28;20023;-37
2021/08/12 11:49:54;;;;;;;4.35;1.35;;;;;;;;;;5031718;28;20033;-36
2021/08/12 11:52:24;;;;;;;3.72;1.73;;;;;;;;;;5017469;28;20128;-38
2021/08/12 11:54:57;;;;;;;6.28;1.80;;;;;;;;;;5005321;28;20024;-36
2021/08/12 11:57:44;;;;;;;11.35;1.95;;;;;;;;;;5021154;28;20053;-36
2021/08/12 12:00:12;;;;;;;4.90;1.48;;;;;;;;;;5012575;28;20026;-39
2021/08/12 12:02:49;;;;;;;7.43;1.70;;;;;;;;;;5012246;28;20028;-36
2021/08/12 12:05:17;;;;;;;6.93;2.08;;;;;;;;;;5012027;28;20398;-37
2021/08/12 12:07:48;;;;;;;4.50;1.33;;;;;;;;;;5020396;28;21071;-36
2021/08/12 12:10:33;;;;;;;2.75;1.33;;;;;;;;;;5022637;28;20378;-38
2021/08/12 12:13:09;;;;;;;4.13;1.67;;;;;;;;;;4993913;28;20104;-36
2021/08/12 12:15:37;;;;;;;3.60;1.20;;;;;;;;;;4984158;28;20575;-36
2021/08/12 12:18:04;;;;;;;6.30;1.70;;;;;;;;;;5008099;28;20037;-36
2021/08/12 12:20:32;;;;;;;4.55;1.50;;;;;;;;;;5010927;28;20022;-39
2021/08/12 12:23:03;;;;;;;6.30;1.60;;;;;;;;;;5011497;28;20022;-42
2021/08/12 12:25:31;;;;;;;4.68;1.38;;;;;;;;;;4993385;28;20682;-35
2021/08/12 12:27:58;;;;;;;3.95;1.42;;;;;;;;;;5011437;28;20014;-35
2021/08/12 12:30:27;;;;;;;6.13;1.73;;;;;;;;;;5010722;28;20478;-36
2021/08/12 12:33:01;;;;;;;3.92;1.60;;;;;;;;;;5011037;28;20097;-36
2021/08/12 12:35:29;;;;;;;3.97;1.48;;;;;;;;;;5013242;28;20118;-36
2021/08/12 12:37:56;;;;;;;4.68;1.50;;;;;;;;;;5011028;28;20036;-35
2021/08/12 12:40:24;;;;;;;5.22;1.55;;;;;;;;;;4992795;28;20449;-38
2021/08/12 12:42:51;;;;;;;5.63;1.60;;;;;;;;;;5010378;28;20022;-36
2021/08/12 12:45:18;;;;;;;4.47;1.63;;;;;;;;;;5011607;28;20614;-38
2021/08/12 12:47:46;;;;;;;4.20;1.60;;;;;;;;;;5011478;28;20056;-36
2021/08/12 12:50:14;;;;;;;8.15;1.58;;;;;;;;;;5010394;28;20026;-35
2021/08/12 12:52:59;;;;;;;3.65;1.30;;;;;;;;;;5011657;28;20014;-37
2021/08/12 12:55:28;;;;;;;6.22;1.48;;;;;;;;;;5025299;28;20075;-35
2021/08/12 12:57:57;;;;;;;2.17;1.10;;;;;;;;;;5021952;28;20040;-36
2021/08/12 13:00:24;;;;;;;6.43;1.58;;;;;;;;;;5023906;28;20359;-37
2021/08/12 13:02:52;;;;;;;4.78;1.33;;;;;;;;;;4996700;28;20058;-34
2021/08/12 13:05:20;;;;;;;5.72;1.40;;;;;;;;;;5009516;28;20025;-33
2021/08/12 13:07:47;;;;;;;4.05;1.50;;;;;;;;;;5009511;28;20114;-40
2021/08/12 13:10:17;;;;;;;4.32;1.38;;;;;;;;;;5010177;28;20084;-33
2021/08/12 13:12:56;;;;;;;4.57;1.35;;;;;;;;;;5010131;28;20029;-33
2021/08/12 13:15:23;;;;;;;3.60;1.40;;;;;;;;;;5010754;28;20065;-33
2021/08/12 13:17:57;;;;;;;4.80;1.40;;;;;;;;;;5011127;28;20046;-37
2021/08/12 13:20:25;;;;;;;5.13;1.55;;;;;;;;;;5008707;28;20022;-34
2021/08/12 13:22:55;;;;;;;5.15;1.67;;;;;;;;;;5002472;28;20379;-34
2021/08/12 13:25:25;;;;;;;13.27;1.70;;;;;;;;;;4999119;28;20132;-34
2021/08/12 13:27:54;;;;;;;5.93;1.25;;;;;;;;;;4992962;28;20713;-42
2021/08/12 13:30:29;;;;;;;5.72;1.67;;;;;;;;;;4995895;28;20133;-37
2021/08/12 13:32:59;;;;;;;4.28;1.42;;;;;;;;;;4988191;28;20033;-38
2021/08/12 13:35:26;;;;;;;8.25;1.15;;;;;;;;;;5006485;28;20030;-37
2021/08/12 13:37:54;;;;;;;10.45;1.42;;;;;;;;;;5010298;28;20022;-36
2021/08/12 13:40:22;;;;;;;5.28;1.20;;;;;;;;;;5007924;28;20508;-37
2021/08/12 13:42:49;;;;;;;10.13;1.65;;;;;;;;;;4998887;28;20026;-34
2021/08/12 13:45:16;;;;;;;5.75;1.42;;;;;;;;;;5009512;28;20096;-36
2021/08/12 13:47:44;;;;;;;7.30;1.40;;;;;;;;;;5003073;28;20022;-36
2021/08/12 13:50:11;;;;;;;9.77;1.50;;;;;;;;;;5002926;28;20160;-37
2021/08/12 13:52:39;;;;;;;14.57;1.73;;;;;;;;;;5013898;28;20022;-35
2021/08/12 13:55:07;;;;;;;10.10;1.60;;;;;;;;;;4993426;28;20033;-34
2021/08/12 13:57:35;;;;;;;5.22;1.48;;;;;;;;;;5009087;28;20026;-37
2021/08/12 14:00:02;;;;;;;9.52;1.92;;;;;;;;;;5012425;28;20030;-36
2021/08/12 14:02:29;;;;;;;5.38;1.55;;;;;;;;;;5002144;28;20132;-38
2021/08/12 14:04:56;;;;;;;11.85;2.45;;;;;;;;;;5006879;28;20026;-39
2021/08/12 14:10:30;;;;;;;10.10;1.50;;;;;;;;;;4994578;28;20160;-36
2021/08/12 14:12:57;;;;;;;6.68;1.80;;;;;;;;;;5010012;28;20119;-38
2021/08/12 14:15:24;;;;;;;7.90;1.45;;;;;;;;;;5008479;28;20033;-43
2021/08/12 14:17:51;;;;;;;5.68;1.65;;;;;;;;;;5009696;28;20040;-38
2021/08/12 14:20:18;;;;;;;11.13;1.90;;;;;;;;;;5011633;28;20393;-35
2021/08/12 14:22:45;;;;;;;15.02;2.58;;;;;;;;;;5004452;28;20024;-39
2021/08/12 14:25:12;;;;;;;7.70;2.10;;;;;;;;;;4987820;28;20092;-40
2021/08/12 14:27:41;;;;;;;8.90;1.83;;;;;;;;;;5005407;28;20022;-35
2021/08/12 14:30:08;;;;;;;5.03;1.55;;;;;;;;;;5010236;28;20034;-40
2021/08/12 14:32:35;;;;;;;10.88;2.28;;;;;;;;;;5007157;28;20025;-44
2021/08/12 14:35:03;;;;;;;8.88;1.83;;;;;;;;;;5011957;28;20092;-45
2021/08/12 14:37:30;;;;;;;15.57;2.05;;;;;;;;;;4999101;28;20038;-36
2021/08/12 14:40:02;;;;;;;8.82;1.83;;;;;;;;;;5003287;28;20097;-37
2021/08/12 14:42:29;;;;;;;11.93;1.70;;;;;;;;;;5008307;28;20026;-42
2021/08/12 14:44:56;;;;;;;9.77;1.95;;;;;;;;;;5011677;28;20433;-35
2021/08/12 14:47:23;;;;;;;11.55;2.15;;;;;;;;;;5012625;28;20487;-38